createdAt,value
2023-02-27T00:00:54.689Z,5.09
2023-02-27T00:03:22.692Z,5.74
2023-02-27T00:05:50.651Z,6.07
2023-02-27T00:08:18.702Z,5.92
2023-02-27T00:10:47.794Z,5.62
2023-02-27T00:13:17.187Z,5.15
2023-02-27T00:15:46.994Z,5.44
2023-02-27T00:18:14.959Z,5.80
2023-02-27T00:20:43.080Z,6.06
2023-02-27T00:23:11.401Z,6.07
2023-02-27T00:25:39.239Z,6.42
2023-02-27T00:28:07.001Z,6.32
2023-02-27T00:30:36.141Z,6.57
2023-02-27T00:33:04.275Z,6.56
2023-02-27T00:35:34.371Z,6.15
2023-02-27T00:38:02.553Z,6.25
2023-02-27T00:40:30.701Z,6.38
2023-02-27T00:42:58.897Z,6.35
2023-02-27T00:45:27.028Z,6.35
2023-02-27T00:47:56.720Z,6.45
2023-02-27T00:50:24.559Z,6.28
2023-02-27T00:52:52.439Z,6.05
2023-02-27T00:55:20.324Z,5.87
2023-02-27T00:57:48.652Z,5.82
2023-02-27T01:00:17.193Z,5.46
2023-02-27T01:02:45.141Z,6.01
2023-02-27T01:05:14.929Z,6.15
2023-02-27T01:07:43.465Z,6.44
2023-02-27T01:10:15.879Z,6.39
2023-02-27T01:12:43.715Z,6.25
2023-02-27T01:15:12.686Z,6.47
2023-02-27T01:17:40.680Z,6.17
2023-02-27T01:20:10.779Z,6.67
2023-02-27T01:22:39.989Z,6.10
2023-02-27T01:25:09.129Z,5.65
2023-02-27T01:27:40.856Z,5.85
2023-02-27T01:30:11.442Z,6.15
2023-02-27T01:32:39.380Z,6.39
2023-02-27T01:35:07.988Z,6.23
2023-02-27T01:37:35.842Z,6.24
2023-02-27T01:40:08.952Z,6.08
2023-02-27T01:42:37.111Z,6.24
2023-02-27T01:45:30.838Z,5.78
2023-02-27T01:48:06.570Z,6.24
2023-02-27T01:50:36.138Z,6.44
2023-02-27T01:53:07.796Z,6.02
2023-02-27T01:55:40.035Z,5.77
2023-02-27T01:58:10.942Z,5.40
2023-02-27T02:00:39.383Z,5.27
2023-02-27T02:03:17.630Z,5.64
2023-02-27T02:05:47.307Z,5.82
2023-02-27T02:08:18.176Z,5.81
2023-02-27T02:10:49.282Z,5.14
2023-02-27T02:13:19.812Z,4.97
2023-02-27T02:15:54.139Z,4.89
2023-02-27T02:18:32.164Z,4.97
2023-02-27T02:21:35.705Z,5.17
2023-02-27T02:24:35.020Z,4.49
2023-02-27T02:27:19.133Z,4.57
2023-02-27T02:30:31.116Z,4.61
2023-02-27T02:33:37.153Z,4.99
2023-02-27T02:36:49.650Z,4.31
2023-02-27T02:39:45.023Z,4.44
2023-02-27T02:42:20.955Z,4.62
2023-02-27T02:45:02.554Z,4.91
2023-02-27T02:47:37.438Z,4.87
2023-02-27T02:50:13.481Z,5.09
2023-02-27T02:52:53.233Z,5.56
2023-02-27T02:55:30.278Z,5.77
2023-02-27T02:58:05.146Z,5.59
2023-02-27T03:00:36.487Z,5.29
2023-02-27T03:03:11.436Z,5.12
2023-02-27T03:05:42.915Z,5.17
2023-02-27T03:08:15.503Z,5.35
2023-02-27T03:10:49.076Z,5.11
2023-02-27T03:13:23.585Z,5.40
2023-02-27T03:15:59.732Z,5.08
2023-02-27T03:18:33.520Z,5.14
2023-02-27T03:21:05.762Z,5.28
2023-02-27T03:23:37.650Z,5.16
2023-02-27T03:26:08.080Z,4.83
2023-02-27T03:28:42.438Z,5.10
2023-02-27T03:31:18.627Z,5.08
2023-02-27T03:33:50.665Z,5.22
2023-02-27T03:36:27.502Z,5.15
2023-02-27T03:39:01.855Z,5.42
2023-02-27T03:41:35.257Z,5.19
2023-02-27T03:44:30.425Z,5.19
2023-02-27T03:46:59.323Z,5.08
2023-02-27T03:49:27.564Z,5.28
2023-02-27T03:51:55.668Z,5.20
2023-02-27T03:54:28.221Z,4.66
2023-02-27T03:57:01.723Z,4.98
2023-02-27T03:59:31.557Z,4.88
2023-02-27T04:02:01.134Z,4.93
2023-02-27T04:04:32.869Z,5.00
2023-02-27T04:07:36.893Z,5.14
2023-02-27T04:10:27.912Z,5.21
2023-02-27T04:13:34.572Z,4.32
2023-02-27T04:16:20.848Z,4.97
2023-02-27T04:19:04.296Z,5.07
2023-02-27T04:21:39.901Z,5.28
2023-02-27T04:24:21.433Z,5.54
2023-02-27T04:26:54.381Z,5.37
2023-02-27T04:29:38.651Z,5.55
2023-02-27T04:32:15.971Z,5.18
2023-02-27T04:34:49.928Z,5.19
2023-02-27T04:37:23.669Z,5.10
2023-02-27T04:39:55.397Z,4.98
2023-02-27T04:42:27.941Z,5.36
2023-02-27T04:45:00.571Z,5.21
2023-02-27T04:47:32.758Z,5.25
2023-02-27T04:50:04.577Z,5.20
2023-02-27T04:52:37.872Z,5.57
2023-02-27T04:55:09.117Z,5.45
2023-02-27T04:57:42.197Z,5.46
2023-02-27T05:00:14.787Z,5.67
2023-02-27T05:02:45.944Z,5.21
2023-02-27T05:05:17.996Z,4.48
2023-02-27T05:07:49.917Z,5.06
2023-02-27T05:10:25.357Z,5.16
2023-02-27T05:12:58.187Z,5.18
2023-02-27T05:15:32.500Z,4.91
2023-02-27T05:18:03.784Z,4.90
2023-02-27T05:20:38.679Z,4.96
2023-02-27T05:23:14.382Z,4.91
2023-02-27T05:25:49.774Z,5.37
2023-02-27T05:28:22.052Z,5.16
2023-02-27T05:30:57.385Z,5.46
2023-02-27T05:33:31.913Z,5.45
2023-02-27T05:36:04.728Z,5.99
2023-02-27T05:38:37.988Z,5.70
2023-02-27T05:41:10.092Z,5.82
2023-02-27T05:43:42.571Z,6.22
2023-02-27T05:46:16.723Z,6.19
2023-02-27T05:48:50.082Z,6.19
2023-02-27T05:51:19.542Z,6.08
2023-02-27T05:53:54.174Z,6.55
2023-02-27T05:56:27.258Z,6.58
2023-02-27T05:59:01.424Z,6.64
2023-02-27T06:01:30.884Z,6.19
2023-02-27T06:03:58.849Z,6.08
2023-02-27T06:06:27.280Z,7.04
2023-02-27T06:08:55.290Z,6.43
2023-02-27T06:11:23.108Z,6.57
2023-02-27T06:13:51.146Z,7.03
2023-02-27T06:16:19.377Z,7.05
2023-02-27T06:18:48.821Z,6.71
2023-02-27T06:21:16.735Z,6.53
2023-02-27T06:23:44.765Z,6.66
2023-02-27T06:26:14.255Z,6.46
2023-02-27T06:28:42.693Z,6.99
2023-02-27T06:31:10.822Z,6.92
2023-02-27T06:33:38.832Z,6.83
2023-02-27T06:36:10.359Z,7.00
2023-02-27T06:38:38.261Z,7.05
2023-02-27T06:41:07.450Z,6.82
2023-02-27T06:43:37.120Z,7.36
2023-02-27T06:46:05.371Z,6.87
2023-02-27T06:48:33.724Z,7.10
2023-02-27T06:51:01.649Z,7.37
2023-02-27T06:53:31.055Z,7.21
2023-02-27T06:56:02.031Z,6.91
2023-02-27T06:58:29.983Z,7.40
2023-02-27T07:00:59.847Z,6.94
2023-02-27T07:03:27.972Z,6.87
2023-02-27T07:05:58.080Z,6.95
2023-02-27T07:08:26.484Z,6.39
2023-02-27T07:10:55.732Z,6.57
2023-02-27T07:13:23.853Z,6.52
2023-02-27T07:15:52.283Z,6.29
2023-02-27T07:18:20.230Z,6.57
2023-02-27T07:20:51.161Z,6.54
2023-02-27T07:23:19.285Z,6.52
2023-02-27T07:25:48.580Z,6.60
2023-02-27T07:28:20.331Z,6.16
2023-02-27T07:30:48.767Z,5.73
2023-02-27T07:33:16.739Z,5.68
2023-02-27T07:35:46.266Z,5.27
2023-02-27T07:38:14.392Z,6.10
2023-02-27T07:40:42.938Z,5.83
2023-02-27T07:43:10.724Z,6.59
2023-02-27T07:45:40.032Z,6.81
2023-02-27T07:48:12.993Z,5.52
2023-02-27T07:50:47.329Z,6.14
2023-02-27T07:53:15.277Z,6.63
2023-02-27T07:55:43.295Z,5.51
2023-02-27T07:58:11.176Z,5.23
2023-02-27T08:00:41.015Z,6.31
2023-02-27T08:03:09.131Z,5.27
2023-02-27T08:05:37.210Z,5.77
2023-02-27T08:08:05.481Z,6.16
2023-02-27T08:10:33.441Z,5.72
2023-02-27T08:13:01.318Z,5.07
2023-02-27T08:15:29.491Z,5.67
2023-02-27T08:17:59.199Z,5.96
2023-02-27T08:20:27.974Z,5.98
2023-02-27T08:22:56.252Z,5.09
2023-02-27T08:25:24.439Z,5.41
2023-02-27T08:27:52.439Z,5.78
2023-02-27T08:30:20.592Z,6.04
2023-02-27T08:32:48.722Z,5.71
2023-02-27T08:35:18.081Z,5.41
2023-02-27T08:37:46.335Z,6.17
2023-02-27T08:40:14.327Z,6.08
2023-02-27T08:42:42.483Z,6.10
2023-02-27T08:45:11.772Z,6.94
2023-02-27T08:47:39.889Z,6.73
2023-02-27T08:50:08.737Z,6.89
2023-02-27T08:52:38.046Z,6.56
2023-02-27T08:55:06.679Z,7.73
2023-02-27T08:57:34.658Z,7.02
2023-02-27T09:00:04.908Z,6.88
2023-02-27T09:02:33.170Z,7.40
2023-02-27T09:05:01.372Z,7.15
2023-02-27T09:07:29.664Z,7.17
2023-02-27T09:09:59.046Z,7.63
2023-02-27T09:12:27.495Z,8.13
2023-02-27T09:14:55.351Z,8.06
2023-02-27T09:17:23.354Z,7.28
2023-02-27T09:19:51.873Z,8.17
2023-02-27T09:22:19.945Z,7.90
2023-02-27T09:24:48.117Z,7.94
2023-02-27T09:27:17.681Z,8.34
2023-02-27T09:29:45.536Z,8.03
2023-02-27T09:32:13.627Z,7.38
2023-02-27T09:34:41.556Z,8.39
2023-02-27T09:37:09.392Z,9.12
2023-02-27T09:39:37.304Z,9.84
2023-02-27T09:42:09.743Z,9.93
2023-02-27T09:44:47.397Z,10.25
2023-02-27T09:47:25.936Z,9.33
2023-02-27T09:50:00.690Z,7.75
2023-02-27T09:52:29.780Z,8.47
2023-02-27T09:54:57.846Z,7.98
2023-02-27T09:57:45.360Z,8.99
2023-02-27T10:00:30.420Z,9.76
2023-02-27T10:03:08.018Z,9.34
2023-02-27T10:05:43.778Z,9.62
2023-02-27T10:08:18.558Z,9.53
2023-02-27T10:10:55.013Z,10.54
2023-02-27T10:13:37.748Z,9.57
2023-02-27T10:16:09.748Z,9.85
2023-02-27T10:18:48.302Z,11.06
2023-02-27T10:21:22.553Z,10.21
2023-02-27T10:23:56.481Z,10.83
2023-02-27T10:26:27.536Z,11.12
2023-02-27T10:28:55.604Z,9.91
2023-02-27T10:31:30.251Z,9.73
2023-02-27T10:33:59.227Z,9.66
2023-02-27T10:36:33.976Z,10.16
2023-02-27T10:39:07.766Z,10.94
2023-02-27T10:41:37.488Z,10.94
2023-02-27T10:44:06.068Z,11.74
2023-02-27T10:46:38.142Z,10.89
2023-02-27T10:49:17.574Z,12.12
2023-02-27T10:51:47.558Z,11.01
2023-02-27T10:54:21.570Z,12.50
2023-02-27T10:56:52.286Z,12.62
2023-02-27T10:59:23.548Z,11.20
2023-02-27T11:01:55.069Z,10.32
2023-02-27T11:04:33.244Z,8.87
2023-02-27T11:07:04.070Z,9.51
2023-02-27T11:09:34.405Z,10.03
2023-02-27T11:12:13.208Z,9.24
2023-02-27T11:14:50.869Z,8.72
2023-02-27T11:17:29.638Z,8.92
2023-02-27T11:19:59.673Z,8.90
2023-02-27T11:22:30.223Z,9.27
2023-02-27T11:25:21.628Z,8.92
2023-02-27T11:27:52.079Z,9.56
2023-02-27T11:30:28.364Z,8.69
2023-02-27T11:33:00.251Z,9.55
2023-02-27T11:35:31.149Z,10.01
2023-02-27T11:38:02.465Z,9.28
2023-02-27T11:40:33.071Z,9.26
2023-02-27T11:43:05.873Z,8.62
2023-02-27T11:46:11.942Z,8.46
2023-02-27T11:48:29.662Z,8.96
2023-02-27T11:51:25.112Z,9.79
2023-02-27T11:54:16.168Z,10.29
2023-02-27T11:56:47.332Z,9.35
2023-02-27T11:59:29.583Z,8.42
2023-02-27T12:02:04.347Z,8.77
2023-02-27T12:04:45.651Z,8.96
2023-02-27T12:07:19.602Z,8.48
2023-02-27T12:09:54.680Z,9.36
2023-02-27T12:12:26.066Z,8.97
2023-02-27T12:15:01.895Z,9.11
2023-02-27T12:17:36.074Z,9.26
2023-02-27T12:20:22.474Z,9.66
2023-02-27T12:22:53.838Z,10.29
2023-02-27T12:25:31.572Z,10.47
2023-02-27T12:28:08.262Z,9.92
2023-02-27T12:30:43.752Z,11.04
2023-02-27T12:33:21.846Z,10.47
2023-02-27T12:38:25.564Z,8.80
2023-02-27T12:41:08.532Z,9.06
2023-02-27T12:43:45.328Z,8.40
2023-02-27T12:46:32.954Z,8.75
2023-02-27T12:49:16.249Z,8.80
2023-02-27T12:51:53.849Z,9.45
2023-02-27T12:54:34.925Z,9.82
2023-02-27T12:57:17.949Z,9.61
2023-02-27T12:59:59.036Z,10.22
2023-02-27T13:02:46.812Z,10.32
2023-02-27T13:05:33.801Z,10.17
2023-02-27T13:08:10.891Z,10.57
2023-02-27T13:10:45.865Z,10.99
2023-02-27T13:13:21.853Z,10.60
2023-02-27T13:15:55.528Z,11.12
2023-02-27T13:18:41.213Z,11.66
2023-02-27T13:21:13.718Z,10.90
2023-02-27T13:23:58.299Z,10.16
2023-02-27T13:26:29.904Z,10.02
2023-02-27T13:28:59.116Z,10.50
2023-02-27T13:31:35.375Z,9.75
2023-02-27T13:34:15.618Z,10.06
2023-02-27T13:36:46.356Z,10.74
2023-02-27T13:39:42.436Z,11.78
2023-02-27T13:42:43.490Z,10.63
2023-02-27T13:45:59.293Z,11.89
2023-02-27T13:48:47.054Z,12.83
2023-02-27T13:51:45.017Z,12.91
2023-02-27T13:54:26.251Z,12.65
2023-02-27T13:57:24.221Z,12.36
2023-02-27T14:00:01.708Z,13.02
2023-02-27T14:02:58.150Z,12.87
2023-02-27T14:05:35.815Z,12.71
2023-02-27T14:08:14.842Z,12.74
2023-02-27T14:10:54.787Z,12.15
2023-02-27T14:14:03.204Z,10.60
2023-02-27T14:16:57.449Z,10.57
2023-02-27T14:19:59.480Z,11.39
2023-02-27T14:22:56.109Z,11.50
2023-02-27T14:25:34.209Z,11.47
2023-02-27T14:28:03.411Z,10.75
2023-02-27T14:30:36.817Z,11.07
2023-02-27T14:33:16.696Z,11.22
2023-02-27T14:35:48.079Z,10.36
2023-02-27T14:38:20.383Z,10.89
2023-02-27T14:41:03.819Z,11.69
2023-02-27T14:43:40.626Z,10.75
2023-02-27T14:46:17.062Z,10.66
2023-02-27T14:48:44.967Z,11.54
2023-02-27T14:51:12.773Z,11.22
2023-02-27T14:53:40.892Z,10.31
2023-02-27T14:56:20.099Z,10.53
2023-02-27T14:59:03.460Z,10.74
2023-02-27T15:01:37.491Z,10.15
2023-02-27T15:04:06.193Z,9.31
2023-02-27T15:06:40.352Z,9.62
2023-02-27T15:09:08.603Z,10.23
2023-02-27T15:11:44.801Z,10.05
2023-02-27T15:14:22.050Z,10.67
2023-02-27T15:16:55.799Z,11.09
2023-02-27T15:19:25.673Z,10.62
2023-02-27T15:21:59.765Z,10.26
2023-02-27T15:24:33.138Z,10.30
2023-02-27T15:27:05.934Z,10.51
2023-02-27T15:29:37.692Z,11.08
2023-02-27T15:32:08.426Z,10.99
2023-02-27T15:34:36.987Z,10.92
2023-02-27T15:37:07.828Z,11.22
2023-02-27T15:39:37.004Z,10.82
2023-02-27T15:42:07.127Z,10.87
2023-02-27T15:44:39.909Z,10.73
2023-02-27T15:47:11.940Z,9.78
2023-02-27T15:49:40.195Z,10.06
2023-02-27T15:52:17.713Z,9.46
2023-02-27T15:54:51.798Z,10.21
2023-02-27T15:57:21.933Z,9.64
2023-02-27T15:59:51.497Z,10.90
2023-02-27T16:02:25.077Z,11.03
2023-02-27T16:04:53.226Z,10.10
2023-02-27T16:07:24.633Z,11.01
2023-02-27T16:09:55.534Z,10.39
2023-02-27T16:12:30.505Z,10.87
2023-02-27T16:15:21.409Z,10.78
2023-02-27T16:17:58.603Z,11.01
2023-02-27T16:20:33.395Z,10.56
2023-02-27T16:23:05.593Z,10.61
2023-02-27T16:25:33.574Z,10.91
2023-02-27T16:28:01.580Z,10.24
2023-02-27T16:30:29.523Z,10.58
2023-02-27T16:33:01.876Z,10.09
2023-02-27T16:35:30.355Z,9.71
2023-02-27T16:38:03.463Z,9.16
2023-02-27T16:40:31.492Z,9.12
2023-02-27T16:43:01.709Z,9.14
2023-02-27T16:45:33.858Z,9.52
2023-02-27T16:48:03.643Z,9.53
2023-02-27T16:50:36.054Z,9.49
2023-02-27T16:53:04.088Z,9.71
2023-02-27T16:55:33.742Z,10.01
2023-02-27T16:58:01.815Z,9.66
2023-02-27T17:00:29.755Z,9.89
2023-02-27T17:02:58.177Z,9.81
2023-02-27T17:05:31.127Z,9.89
2023-02-27T17:07:59.299Z,9.98
2023-02-27T17:10:28.565Z,9.69
2023-02-27T17:12:56.644Z,9.88
2023-02-27T17:15:27.578Z,9.66
2023-02-27T17:17:55.599Z,10.28
2023-02-27T17:20:24.544Z,10.18
2023-02-27T17:22:54.276Z,10.36
2023-02-27T17:25:29.126Z,10.16
2023-02-27T17:27:58.950Z,9.78
2023-02-27T17:31:03.646Z,9.99
2023-02-27T17:33:32.302Z,10.19
2023-02-27T17:36:03.511Z,10.38
2023-02-27T17:38:32.902Z,9.85
2023-02-27T17:41:00.805Z,10.12
2023-02-27T17:43:28.656Z,9.51
2023-02-27T17:45:57.733Z,9.73
2023-02-27T17:48:31.900Z,9.78
2023-02-27T17:51:05.183Z,9.93
2023-02-27T17:53:35.627Z,10.10
2023-02-27T17:56:03.880Z,9.96
2023-02-27T17:58:31.867Z,9.76
2023-02-27T18:01:05.839Z,10.01
2023-02-27T18:03:33.696Z,10.31
2023-02-27T18:06:02.069Z,10.00
2023-02-27T18:08:31.432Z,9.96
2023-02-27T18:11:01.232Z,10.11
2023-02-27T18:13:29.790Z,10.00
2023-02-27T18:15:59.135Z,9.67
2023-02-27T18:18:26.950Z,10.06
2023-02-27T18:21:03.085Z,9.94
2023-02-27T18:23:37.058Z,10.28
2023-02-27T18:26:17.157Z,10.08
2023-02-27T18:29:02.317Z,9.45
2023-02-27T18:31:32.517Z,9.25
2023-02-27T18:34:00.710Z,9.48
2023-02-27T18:36:29.386Z,9.77
2023-02-27T18:38:57.752Z,9.82
2023-02-27T18:41:27.690Z,9.84
2023-02-27T18:43:59.601Z,9.85
2023-02-27T18:46:28.475Z,10.43
2023-02-27T18:48:56.952Z,10.80
2023-02-27T18:51:25.222Z,10.40
2023-02-27T18:54:15.957Z,9.74
2023-02-27T18:56:45.546Z,9.86
2023-02-27T18:59:15.681Z,10.19
2023-02-27T19:01:45.959Z,10.64
2023-02-27T19:04:13.866Z,10.69
2023-02-27T19:06:43.073Z,10.97
2023-02-27T19:09:12.929Z,10.63
2023-02-27T19:11:40.854Z,10.60
2023-02-27T19:14:12.988Z,10.48
2023-02-27T19:16:41.089Z,10.32
2023-02-27T19:19:09.873Z,10.27
2023-02-27T19:21:38.108Z,9.87
2023-02-27T19:24:06.904Z,10.52
2023-02-27T19:26:35.036Z,10.50
2023-02-27T19:29:03.504Z,10.69
2023-02-27T19:31:32.878Z,10.68
2023-02-27T19:34:01.002Z,10.47
2023-02-27T19:36:30.605Z,10.30
2023-02-27T19:38:59.928Z,9.94
2023-02-27T19:41:28.820Z,9.62
2023-02-27T19:43:57.620Z,9.50
2023-02-27T19:46:28.243Z,9.71
2023-02-27T19:49:01.482Z,10.07
2023-02-27T19:51:29.867Z,9.96
2023-02-27T19:53:57.751Z,10.32
2023-02-27T19:56:27.683Z,10.13
2023-02-27T19:58:56.151Z,10.56
2023-02-27T20:01:26.367Z,10.34
2023-02-27T20:03:55.823Z,10.02
2023-02-27T20:06:28.822Z,9.45
2023-02-27T20:08:58.050Z,9.73
2023-02-27T20:11:30.687Z,9.82
2023-02-27T20:13:58.903Z,9.60
2023-02-27T20:16:28.201Z,9.51
2023-02-27T20:18:56.596Z,9.39
2023-02-27T20:21:26.821Z,9.54
2023-02-27T20:23:55.879Z,9.48
2023-02-27T20:26:26.434Z,9.40
2023-02-27T20:28:57.200Z,9.72
2023-02-27T20:31:28.456Z,9.49
2023-02-27T20:33:57.572Z,9.42
2023-02-27T20:36:26.970Z,9.77
2023-02-27T20:38:55.305Z,9.75
2023-02-27T20:41:27.613Z,9.48
2023-02-27T20:43:57.852Z,9.25
2023-02-27T20:46:28.655Z,9.17
2023-02-27T20:48:57.657Z,9.09
2023-02-27T20:51:29.573Z,8.88
2023-02-27T20:54:00.822Z,8.90
2023-02-27T20:56:30.716Z,10.13
2023-02-27T20:58:59.824Z,9.68
2023-02-27T21:01:28.214Z,9.75
2023-02-27T21:03:58.663Z,9.59
2023-02-27T21:06:28.529Z,8.98
2023-02-27T21:08:57.592Z,8.54
2023-02-27T21:11:29.042Z,9.24
2023-02-27T21:13:57.988Z,8.84
2023-02-27T21:16:26.488Z,9.34
2023-02-27T21:18:56.698Z,9.18
2023-02-27T21:21:29.037Z,8.96
2023-02-27T21:23:58.058Z,8.85
2023-02-27T21:26:28.382Z,8.89
2023-02-27T21:28:58.279Z,9.66
2023-02-27T21:31:29.213Z,9.40
2023-02-27T21:33:59.008Z,9.54
2023-02-27T21:36:29.701Z,8.94
2023-02-27T21:38:58.979Z,9.48
2023-02-27T21:41:27.213Z,9.10
2023-02-27T21:43:58.805Z,8.76
2023-02-27T21:46:27.150Z,9.25
2023-02-27T21:48:58.240Z,9.06
2023-02-27T21:51:39.454Z,9.55
2023-02-27T21:54:10.608Z,8.89
2023-02-27T21:56:39.404Z,9.23
2023-02-27T21:59:07.557Z,8.90
2023-02-27T22:01:39.358Z,9.32
2023-02-27T22:04:08.314Z,9.14
2023-02-27T22:06:37.792Z,9.47
2023-02-27T22:09:07.570Z,8.95
2023-02-27T22:11:35.905Z,8.71
2023-02-27T22:14:04.442Z,8.70
2023-02-27T22:16:32.270Z,8.49
2023-02-27T22:19:00.183Z,8.74
2023-02-27T22:21:28.867Z,8.33
2023-02-27T22:23:58.896Z,8.30
2023-02-27T22:26:29.154Z,7.99
2023-02-27T22:28:58.192Z,8.34
2023-02-27T22:31:29.347Z,8.20
2023-02-27T22:34:01.086Z,8.40
2023-02-27T22:36:31.567Z,8.43
2023-02-27T22:39:01.618Z,8.60
2023-02-27T22:41:31.979Z,8.37
2023-02-27T22:44:01.865Z,8.32
2023-02-27T22:46:31.272Z,8.36
2023-02-27T22:49:01.787Z,8.44
2023-02-27T22:51:30.583Z,8.22
2023-02-27T22:54:03.097Z,8.11
2023-02-27T22:56:31.842Z,8.21
2023-02-27T22:58:59.964Z,8.48
2023-02-27T23:01:30.183Z,8.38
2023-02-27T23:04:00.129Z,8.55
2023-02-27T23:06:30.812Z,8.71
2023-02-27T23:08:59.346Z,8.20
2023-02-27T23:11:29.077Z,8.86
2023-02-27T23:13:57.253Z,8.68
2023-02-27T23:16:25.780Z,8.50
2023-02-27T23:18:55.868Z,8.49
2023-02-27T23:21:25.565Z,8.45
2023-02-27T23:23:54.407Z,8.11
2023-02-27T23:26:22.902Z,7.62
2023-02-27T23:28:52.060Z,7.52
2023-02-27T23:31:19.882Z,7.54
2023-02-27T23:33:47.643Z,7.69
2023-02-27T23:36:15.574Z,7.87
2023-02-27T23:38:46.405Z,7.71
2023-02-27T23:41:16.688Z,7.49
2023-02-27T23:44:02.960Z,7.78
2023-02-27T23:46:32.234Z,7.95
2023-02-27T23:49:00.771Z,7.13
2023-02-27T23:51:30.461Z,6.91
2023-02-27T23:53:59.120Z,7.01
2023-02-27T23:56:28.581Z,7.49
2023-02-27T23:58:58.044Z,7.60
